createdAt,value
2018-12-21T00:02:13.218Z,1.20
2018-12-21T00:04:40.055Z,0.93
2018-12-21T00:07:06.902Z,1.40
2018-12-21T00:09:33.810Z,1.23
2018-12-21T00:12:00.853Z,0.93
2018-12-21T00:14:27.705Z,1.93
2018-12-21T00:16:54.539Z,1.83
2018-12-21T00:19:21.587Z,1.27
2018-12-21T00:21:48.644Z,1.00
2018-12-21T00:24:15.499Z,1.03
2018-12-21T00:26:42.353Z,1.30
2018-12-21T00:29:09.363Z,1.00
2018-12-21T00:31:36.203Z,1.70
2018-12-21T00:34:03.054Z,0.90
2018-12-21T00:36:29.896Z,1.47
2018-12-21T00:38:56.823Z,2.57
2018-12-21T00:41:23.646Z,1.73
2018-12-21T00:43:50.495Z,1.40
2018-12-21T00:46:17.451Z,1.07
2018-12-21T00:48:44.370Z,1.20
2018-12-21T00:51:11.354Z,0.80
2018-12-21T00:53:38.190Z,0.80
2018-12-21T00:56:05.033Z,0.90
2018-12-21T00:58:31.867Z,1.13
2018-12-21T01:00:58.711Z,0.97
2018-12-21T01:03:25.534Z,1.10
2018-12-21T01:05:52.369Z,1.10
2018-12-21T01:08:19.203Z,1.13
2018-12-21T01:10:46.099Z,1.10
2018-12-21T01:13:12.941Z,0.70
2018-12-21T01:15:39.772Z,0.97
2018-12-21T01:18:06.630Z,0.70
2018-12-21T01:20:33.563Z,1.53
2018-12-21T01:23:00.395Z,1.17
2018-12-21T01:25:27.224Z,0.80
2018-12-21T01:27:54.070Z,0.80
2018-12-21T01:30:21.056Z,0.80
2018-12-21T01:32:47.892Z,0.80
2018-12-21T01:35:14.760Z,0.83
2018-12-21T01:37:41.601Z,0.80
2018-12-21T01:40:08.635Z,0.90
2018-12-21T01:42:35.478Z,0.70
2018-12-21T01:45:02.321Z,0.90
2018-12-21T01:47:29.161Z,0.80
2018-12-21T01:49:56.005Z,0.53
2018-12-21T01:52:22.841Z,1.57
2018-12-21T01:54:49.675Z,0.73
2018-12-21T01:57:16.519Z,0.50
2018-12-21T01:59:43.377Z,0.80
2018-12-21T02:02:10.406Z,0.60
2018-12-21T02:04:37.239Z,0.80
2018-12-21T02:07:04.071Z,0.90
2018-12-21T02:09:30.951Z,0.70
2018-12-21T02:11:57.793Z,1.80
2018-12-21T02:14:24.664Z,0.80
2018-12-21T02:16:51.464Z,0.80
2018-12-21T02:19:18.317Z,0.53
2018-12-21T02:21:45.150Z,0.70
2018-12-21T02:24:11.988Z,0.60
2018-12-21T02:26:38.937Z,1.73
2018-12-21T02:29:05.899Z,0.70
2018-12-21T02:31:32.768Z,1.83
2018-12-21T02:33:59.608Z,1.23
2018-12-21T02:36:26.432Z,0.70
2018-12-21T02:38:53.472Z,0.80
2018-12-21T02:41:20.313Z,0.60
2018-12-21T02:43:47.164Z,1.23
2018-12-21T02:46:14.003Z,0.63
2018-12-21T02:48:40.837Z,0.70
2018-12-21T02:51:07.666Z,2.13
2018-12-21T02:53:34.511Z,0.90
2018-12-21T02:56:01.369Z,1.53
2018-12-21T02:58:28.198Z,1.07
2018-12-21T03:00:55.039Z,0.73
2018-12-21T03:03:21.873Z,0.50
2018-12-21T03:05:48.719Z,0.60
2018-12-21T03:08:15.555Z,0.73
2018-12-21T03:10:42.433Z,0.60
2018-12-21T03:13:09.272Z,0.73
2018-12-21T03:15:36.103Z,0.60
2018-12-21T03:18:02.938Z,1.83
2018-12-21T03:20:29.799Z,0.57
2018-12-21T03:22:56.842Z,1.13
2018-12-21T03:25:23.885Z,0.67
2018-12-21T03:27:50.730Z,0.70
2018-12-21T03:30:17.585Z,0.70
2018-12-21T03:32:44.440Z,0.87
2018-12-21T03:35:11.291Z,1.10
2018-12-21T03:37:38.124Z,0.60
2018-12-21T03:40:05.161Z,0.80
2018-12-21T03:42:32.011Z,0.90
2018-12-21T03:44:58.832Z,0.80
2018-12-21T03:47:25.699Z,1.80
2018-12-21T03:49:52.729Z,0.80
2018-12-21T03:52:24.179Z,1.13
2018-12-21T03:54:48.360Z,0.50
2018-12-21T03:57:15.379Z,0.60
2018-12-21T03:59:42.789Z,0.70
2018-12-21T04:02:09.847Z,1.63
2018-12-21T04:04:37.602Z,1.13
2018-12-21T04:07:04.649Z,0.50
2018-12-21T04:09:32.106Z,1.13
2018-12-21T04:11:59.537Z,2.13
2018-12-21T04:14:26.513Z,0.60
2018-12-21T04:16:53.495Z,1.20
2018-12-21T04:19:20.752Z,2.37
2018-12-21T04:21:55.089Z,1.07
2018-12-21T04:24:22.105Z,1.90
2018-12-21T04:26:49.016Z,2.40
2018-12-21T04:29:16.272Z,2.70
2018-12-21T04:31:43.320Z,4.73
2018-12-21T04:34:10.674Z,2.57
2018-12-21T04:36:38.469Z,4.37
2018-12-21T04:39:05.895Z,1.17
2018-12-21T04:41:33.045Z,0.80
2018-12-21T04:44:00.228Z,3.13
2018-12-21T04:46:28.472Z,4.40
2018-12-21T04:51:34.101Z,2.97
2018-12-21T04:54:01.229Z,4.50
2018-12-21T04:56:34.122Z,5.03
2018-12-21T04:59:01.378Z,3.50
2018-12-21T05:01:30.112Z,7.00
2018-12-21T05:03:57.262Z,4.97
2018-12-21T05:06:24.309Z,2.50
2018-12-21T05:08:51.395Z,12.00
2018-12-21T05:11:18.610Z,12.57
2018-12-21T05:13:45.762Z,5.47
2018-12-21T05:16:12.908Z,14.63
2018-12-21T05:18:42.416Z,9.83
2018-12-21T05:21:09.930Z,9.97
2018-12-21T05:23:37.055Z,2.10
2018-12-21T05:26:04.075Z,3.20
2018-12-21T05:28:31.116Z,3.43
2018-12-21T05:30:58.107Z,1.83
2018-12-21T05:33:25.213Z,1.80
2018-12-21T05:35:52.261Z,2.63
2018-12-21T05:38:19.581Z,2.40
2018-12-21T05:40:46.868Z,5.83
2018-12-21T05:45:46.061Z,3.27
2018-12-21T05:48:13.210Z,2.77
2018-12-21T05:50:40.896Z,4.93
2018-12-21T05:53:07.998Z,2.97
2018-12-21T05:58:06.750Z,1.70
2018-12-21T06:00:35.066Z,1.00
2018-12-21T06:03:02.198Z,1.00
2018-12-21T06:05:29.204Z,2.03
2018-12-21T06:07:56.379Z,5.57
2018-12-21T06:10:23.704Z,0.50
2018-12-21T06:12:58.829Z,1.60
2018-12-21T06:15:27.488Z,1.57
2018-12-21T06:17:55.111Z,2.53
2018-12-21T06:20:22.097Z,0.80
2018-12-21T06:22:49.141Z,5.40
2018-12-21T06:25:16.219Z,0.80
2018-12-21T06:27:43.296Z,1.60
2018-12-21T06:30:10.556Z,0.83
2018-12-21T06:32:37.686Z,3.17
2018-12-21T06:35:05.961Z,0.80
2018-12-21T06:40:06.632Z,0.63
2018-12-21T06:45:44.484Z,0.67
2018-12-21T06:48:12.369Z,1.27
2018-12-21T06:50:45.353Z,0.70
2018-12-21T07:01:02.613Z,3.03
2018-12-21T07:06:16.411Z,2.10
2018-12-21T07:08:48.442Z,2.30
2018-12-21T07:11:19.852Z,0.80
2018-12-21T07:13:47.001Z,0.57
2018-12-21T07:19:31.377Z,2.50
2018-12-21T07:21:58.297Z,0.50
2018-12-21T07:24:29.290Z,0.73
2018-12-21T07:26:59.121Z,0.80
2018-12-21T07:29:27.757Z,4.07
2018-12-21T07:31:54.773Z,1.87
2018-12-21T07:37:24.228Z,1.67
2018-12-21T07:39:52.199Z,1.03
2018-12-21T07:42:28.152Z,3.60
2018-12-21T07:44:55.201Z,4.07
2018-12-21T07:47:22.119Z,0.50
2018-12-21T07:49:55.444Z,0.60
2018-12-21T07:52:23.579Z,0.77
2018-12-21T07:57:22.931Z,0.93
2018-12-21T08:03:00.344Z,3.03
2018-12-21T08:05:27.299Z,0.80
2018-12-21T08:10:26.708Z,0.77
2018-12-21T08:12:54.063Z,1.13
2018-12-21T08:15:21.070Z,0.97
2018-12-21T08:17:48.160Z,2.70
2018-12-21T08:20:15.415Z,0.73
2018-12-21T08:22:42.325Z,9.83
2018-12-21T08:25:09.506Z,3.27
2018-12-21T08:27:38.871Z,3.43
2018-12-21T08:30:05.993Z,5.90
2018-12-21T08:32:33.006Z,6.70
2018-12-21T08:34:59.886Z,3.20
2018-12-21T08:37:29.292Z,2.10
2018-12-21T08:43:45.810Z,3.83
2018-12-21T08:48:48.066Z,2.93
2018-12-21T08:51:15.215Z,4.40
2018-12-21T08:53:42.299Z,7.27
2018-12-21T08:56:09.509Z,7.37
2018-12-21T08:58:41.069Z,5.33
2018-12-21T09:01:12.930Z,3.90
2018-12-21T09:03:40.661Z,2.27
2018-12-21T09:06:08.923Z,4.83
2018-12-21T09:08:36.431Z,5.23
2018-12-21T09:13:37.799Z,4.33
2018-12-21T09:16:05.047Z,1.77
2018-12-21T09:18:32.505Z,0.97
2018-12-21T09:21:01.719Z,2.73
2018-12-21T09:23:31.513Z,2.10
2018-12-21T09:26:00.994Z,1.90
2018-12-21T09:28:28.327Z,2.10
2018-12-21T09:30:55.526Z,1.03
2018-12-21T09:33:36.294Z,6.57
2018-12-21T09:36:13.684Z,3.30
2018-12-21T09:38:40.722Z,1.50
2018-12-21T09:41:09.286Z,2.93
2018-12-21T09:43:36.380Z,1.03
2018-12-21T09:46:03.514Z,11.13
2018-12-21T09:48:30.663Z,85.83
2018-12-21T09:50:57.712Z,45.13
2018-12-21T09:56:42.235Z,25.50
2018-12-21T09:59:09.378Z,27.83
2018-12-21T10:01:36.457Z,10.33
2018-12-21T10:04:05.482Z,14.60
2018-12-21T10:06:34.166Z,22.53
2018-12-21T10:09:01.288Z,11.40
2018-12-21T10:11:28.286Z,16.67
2018-12-21T10:13:55.208Z,18.43
2018-12-21T10:16:22.360Z,17.20
2018-12-21T10:18:49.535Z,8.63
2018-12-21T10:21:16.454Z,10.93
2018-12-21T10:23:54.139Z,10.57
2018-12-21T10:26:21.303Z,15.93
2018-12-21T10:28:48.348Z,7.33
2018-12-21T10:31:21.748Z,5.83
2018-12-21T10:33:48.757Z,8.90
2018-12-21T10:36:32.737Z,7.40
2018-12-21T10:38:59.760Z,5.97
2018-12-21T10:41:26.805Z,7.33
2018-12-21T10:43:54.085Z,9.73
2018-12-21T10:46:20.995Z,5.00
2018-12-21T10:48:48.005Z,2.50
2018-12-21T10:51:15.089Z,4.57
2018-12-21T10:53:46.582Z,8.57
2018-12-21T10:56:12.602Z,7.17
2018-12-21T10:58:40.007Z,5.50
2018-12-21T11:01:07.360Z,15.30
2018-12-21T11:03:34.561Z,5.80
2018-12-21T11:06:02.530Z,3.70
2018-12-21T11:08:29.640Z,10.73
2018-12-21T11:10:56.938Z,9.77
2018-12-21T11:13:24.493Z,5.10
2018-12-21T11:15:51.498Z,9.90
2018-12-21T11:18:19.509Z,12.50
2018-12-21T11:20:47.171Z,27.20
2018-12-21T11:23:14.424Z,62.03
2018-12-21T11:25:41.580Z,43.67
2018-12-21T11:28:09.730Z,37.40
2018-12-21T11:30:37.977Z,35.90
2018-12-21T11:33:07.893Z,33.53
2018-12-21T11:35:39.426Z,25.33
2018-12-21T11:38:07.806Z,32.80
2018-12-21T11:40:38.814Z,32.30
2018-12-21T11:43:05.902Z,31.00
2018-12-21T11:45:33.049Z,27.10
2018-12-21T11:48:01.228Z,22.50
2018-12-21T11:50:28.544Z,24.50
2018-12-21T11:52:55.445Z,24.03
2018-12-21T11:55:28.776Z,18.70
2018-12-21T11:57:55.866Z,20.03
2018-12-21T12:00:23.284Z,18.87
2018-12-21T12:02:50.303Z,14.53
2018-12-21T12:05:17.289Z,14.30
2018-12-21T12:07:44.534Z,17.97
2018-12-21T12:10:11.828Z,12.50
2018-12-21T12:12:48.936Z,12.63
2018-12-21T12:15:16.015Z,17.17
2018-12-21T12:17:43.308Z,12.43
2018-12-21T12:20:10.688Z,12.23
2018-12-21T12:22:37.671Z,9.57
2018-12-21T12:25:07.107Z,9.10
2018-12-21T12:27:35.908Z,16.37
2018-12-21T12:30:05.688Z,13.13
2018-12-21T12:32:38.353Z,12.43
2018-12-21T12:37:46.073Z,8.70
2018-12-21T12:40:16.620Z,13.57
2018-12-21T12:42:48.335Z,7.83
2018-12-21T12:45:15.403Z,7.20
2018-12-21T12:47:42.554Z,7.33
2018-12-21T12:50:09.906Z,7.37
2018-12-21T12:52:36.956Z,6.60
2018-12-21T13:00:29.538Z,5.87
2018-12-21T13:05:36.126Z,5.00
2018-12-21T13:08:03.486Z,5.87
2018-12-21T13:13:07.161Z,4.37
2018-12-21T13:15:36.502Z,8.03
2018-12-21T13:20:41.350Z,5.60
2018-12-21T13:23:09.625Z,4.40
2018-12-21T13:25:43.147Z,3.97
2018-12-21T13:28:09.961Z,6.10
2018-12-21T13:30:37.060Z,4.10
2018-12-21T13:33:04.378Z,4.07
2018-12-21T13:35:33.568Z,4.07
2018-12-21T13:38:00.412Z,3.10
2018-12-21T13:40:27.673Z,4.10
2018-12-21T13:42:54.500Z,7.93
2018-12-21T13:45:21.339Z,6.47
2018-12-21T13:47:48.230Z,4.23
2018-12-21T13:50:15.724Z,4.03
2018-12-21T13:52:43.481Z,4.57
2018-12-21T13:55:10.855Z,2.73
2018-12-21T13:57:37.882Z,4.67
2018-12-21T14:00:05.312Z,4.20
2018-12-21T14:02:32.128Z,10.77
2018-12-21T14:04:58.964Z,7.03
2018-12-21T14:07:25.809Z,4.87
2018-12-21T14:09:52.874Z,2.73
2018-12-21T14:12:39.508Z,3.93
2018-12-21T14:15:06.571Z,3.27
2018-12-21T14:23:42.209Z,2.30
2018-12-21T14:26:09.142Z,2.20
2018-12-21T14:28:37.253Z,2.63
2018-12-21T14:33:46.837Z,1.87
2018-12-21T14:36:15.006Z,9.13
2018-12-21T14:38:42.552Z,11.43
2018-12-21T14:41:10.984Z,2.10
2018-12-21T14:43:39.835Z,2.33
2018-12-21T14:46:07.509Z,3.23
2018-12-21T14:48:35.030Z,6.43
2018-12-21T14:51:02.249Z,2.10
2018-12-21T14:53:29.331Z,2.13
2018-12-21T14:55:57.468Z,2.20
2018-12-21T14:58:25.646Z,1.80
2018-12-21T15:00:53.762Z,2.10
2018-12-21T15:03:27.295Z,2.60
2018-12-21T15:05:54.222Z,3.03
2018-12-21T15:08:21.416Z,1.80
2018-12-21T15:13:26.771Z,15.20
2018-12-21T15:15:54.150Z,4.30
2018-12-21T15:20:56.609Z,9.07
2018-12-21T15:23:23.600Z,6.23
2018-12-21T15:25:50.614Z,7.87
2018-12-21T15:31:34.253Z,6.20
2018-12-21T15:34:01.199Z,10.70
2018-12-21T15:36:31.950Z,5.50
2018-12-21T15:39:16.918Z,5.03
2018-12-21T15:45:01.157Z,6.93
2018-12-21T15:47:29.535Z,3.83
2018-12-21T15:49:57.092Z,3.27
2018-12-21T15:52:24.282Z,4.50
2018-12-21T15:54:51.486Z,8.00
2018-12-21T15:57:20.283Z,4.50
2018-12-21T15:59:47.675Z,2.13
2018-12-21T16:05:15.522Z,6.20
2018-12-21T16:07:42.408Z,4.03
2018-12-21T16:10:09.618Z,3.10
2018-12-21T16:15:21.819Z,2.60
2018-12-21T16:17:48.924Z,1.87
2018-12-21T16:22:55.408Z,1.60
2018-12-21T16:25:22.873Z,1.93
2018-12-21T16:27:51.061Z,2.40
2018-12-21T16:30:18.395Z,3.40
2018-12-21T16:32:46.161Z,1.63
2018-12-21T16:35:13.190Z,4.10
2018-12-21T16:37:40.362Z,2.63
2018-12-21T16:40:07.610Z,2.33
2018-12-21T16:42:34.632Z,2.03
2018-12-21T16:45:01.813Z,2.07
2018-12-21T16:47:29.059Z,3.40
2018-12-21T16:49:56.620Z,2.30
2018-12-21T16:52:23.604Z,2.17
2018-12-21T16:54:50.615Z,2.50
2018-12-21T16:57:17.828Z,2.17
2018-12-21T16:59:45.192Z,1.90
2018-12-21T17:02:12.269Z,1.50
2018-12-21T17:04:39.554Z,2.20
2018-12-21T17:07:06.878Z,1.40
2018-12-21T17:09:34.333Z,1.73
2018-12-21T17:12:17.354Z,1.33
2018-12-21T17:14:44.607Z,1.47
2018-12-21T17:19:58.646Z,1.93
2018-12-21T17:22:25.805Z,1.00
2018-12-21T17:24:52.870Z,1.43
2018-12-21T17:27:20.840Z,1.70
2018-12-21T17:37:55.651Z,1.80
2018-12-21T17:40:22.772Z,1.00
2018-12-21T17:42:50.023Z,0.90
2018-12-21T17:45:17.550Z,1.27
2018-12-21T17:47:59.483Z,1.53
2018-12-21T17:50:28.951Z,5.20
2018-12-21T17:52:56.239Z,2.83
2018-12-21T17:55:23.387Z,1.93
2018-12-21T17:57:57.326Z,0.73
2018-12-21T18:00:24.915Z,0.80
2018-12-21T18:02:52.114Z,1.80
2018-12-21T18:05:19.119Z,2.10
2018-12-21T18:10:46.410Z,1.70
2018-12-21T18:16:16.150Z,3.67
2018-12-21T18:18:43.311Z,0.70
2018-12-21T18:21:12.610Z,0.80
2018-12-21T18:23:39.502Z,1.73
2018-12-21T18:31:55.486Z,4.97
2018-12-21T18:34:22.492Z,2.07
2018-12-21T18:36:49.787Z,3.03
2018-12-21T18:39:19.693Z,5.00
2018-12-21T18:41:48.654Z,1.90
2018-12-21T18:44:17.865Z,1.33
2018-12-21T18:52:19.335Z,2.00
2018-12-21T18:54:46.290Z,3.80
2018-12-21T18:57:13.529Z,0.87
2018-12-21T18:59:40.601Z,1.13
2018-12-21T19:02:08.167Z,10.37
2018-12-21T19:04:35.237Z,3.23
2018-12-21T19:07:02.171Z,0.70
2018-12-21T19:09:30.252Z,3.10
2018-12-21T19:11:57.297Z,2.73
2018-12-21T19:14:24.473Z,0.83
2018-12-21T19:16:51.451Z,1.43
2018-12-21T19:19:18.575Z,1.50
2018-12-21T19:21:47.236Z,3.53
2018-12-21T19:24:14.332Z,0.70
2018-12-21T19:26:41.258Z,1.27
2018-12-21T19:29:09.600Z,1.00
2018-12-21T19:31:36.649Z,5.47
2018-12-21T19:34:03.578Z,1.10
2018-12-21T19:39:03.906Z,8.97
2018-12-21T19:41:31.576Z,2.30
2018-12-21T19:43:58.749Z,1.13
2018-12-21T19:46:25.768Z,1.23
2018-12-21T19:48:52.819Z,4.97
2018-12-21T19:51:19.855Z,1.70
2018-12-21T19:53:46.781Z,12.60
2018-12-21T19:56:13.780Z,0.80
2018-12-21T19:58:40.735Z,0.60
2018-12-21T20:01:07.774Z,3.03
2018-12-21T20:03:34.822Z,2.67
2018-12-21T20:06:01.894Z,0.70
2018-12-21T20:08:29.089Z,0.70
2018-12-21T20:10:56.206Z,2.10
2018-12-21T20:13:24.559Z,4.30
2018-12-21T20:15:51.686Z,4.10
2018-12-21T20:18:18.723Z,3.03
2018-12-21T20:20:45.785Z,2.40
2018-12-21T20:23:13.012Z,2.30
2018-12-21T20:25:40.867Z,2.23
2018-12-21T20:30:43.568Z,2.73
2018-12-21T20:35:44.095Z,5.70
2018-12-21T20:38:12.173Z,3.87
2018-12-21T20:40:39.377Z,1.70
2018-12-21T20:43:06.427Z,2.13
2018-12-21T20:45:33.439Z,0.97
2018-12-21T20:48:00.449Z,7.97
2018-12-21T20:50:28.490Z,0.77
2018-12-21T20:52:55.851Z,1.90
2018-12-21T20:55:22.987Z,2.43
2018-12-21T20:57:50.047Z,2.30
2018-12-21T21:00:17.090Z,1.00
2018-12-21T21:02:44.240Z,1.60
2018-12-21T21:05:11.603Z,0.73
2018-12-21T21:07:38.850Z,0.70
2018-12-21T21:10:06.911Z,0.70
2018-12-21T21:12:34.069Z,1.40
2018-12-21T21:15:02.042Z,1.60
2018-12-21T21:20:11.802Z,1.33
2018-12-21T21:26:08.998Z,1.63
2018-12-21T21:28:37.836Z,3.80
2018-12-21T21:31:04.781Z,0.93
2018-12-21T21:33:31.827Z,2.47
2018-12-21T21:35:58.907Z,4.43
2018-12-21T21:38:25.995Z,4.43
2018-12-21T21:40:53.416Z,1.20
2018-12-21T21:43:20.458Z,0.60
2018-12-21T21:45:47.546Z,1.80
2018-12-21T21:48:14.596Z,0.70
2018-12-21T21:53:14.159Z,1.33
2018-12-21T21:55:41.227Z,0.80
2018-12-21T21:58:08.227Z,2.87
2018-12-21T22:00:47.815Z,3.20
2018-12-21T22:03:19.265Z,2.80
2018-12-21T22:06:00.558Z,4.83
2018-12-21T22:08:27.530Z,12.10
2018-12-21T22:11:04.302Z,5.80
2018-12-21T22:13:32.134Z,2.23
2018-12-21T22:16:09.976Z,3.93
2018-12-21T22:18:37.834Z,5.20
2018-12-21T22:23:43.845Z,1.07
2018-12-21T22:26:10.787Z,1.20
2018-12-21T22:28:37.876Z,3.23
2018-12-21T22:31:09.309Z,1.70
2018-12-21T22:33:46.447Z,2.20
2018-12-21T22:36:14.300Z,3.10
2018-12-21T22:38:44.499Z,6.73
2018-12-21T22:43:56.510Z,2.00
2018-12-21T22:46:23.504Z,4.83
2018-12-21T22:48:50.572Z,5.73
2018-12-21T22:51:17.538Z,3.40
2018-12-21T22:53:47.581Z,2.60
2018-12-21T22:56:14.565Z,0.83
2018-12-21T22:58:45.338Z,5.80
2018-12-21T23:01:12.323Z,2.47
2018-12-21T23:03:39.610Z,0.97
2018-12-21T23:06:06.868Z,3.53
2018-12-21T23:08:34.050Z,1.37
2018-12-21T23:11:01.085Z,1.53
2018-12-21T23:13:28.968Z,0.70
2018-12-21T23:16:02.321Z,2.30
2018-12-21T23:18:29.409Z,2.57
2018-12-21T23:20:56.450Z,0.80
2018-12-21T23:23:23.504Z,0.80
2018-12-21T23:25:50.377Z,0.50
2018-12-21T23:28:17.320Z,1.10
2018-12-21T23:36:27.984Z,2.30
2018-12-21T23:38:55.143Z,2.03
2018-12-21T23:41:28.783Z,0.90
2018-12-21T23:43:55.988Z,1.17
2018-12-21T23:46:22.957Z,0.67
2018-12-21T23:48:51.121Z,2.07
2018-12-21T23:51:19.273Z,2.87
2018-12-21T23:56:24.547Z,1.43
